createdAt,value
2022-09-02T00:01:46.902Z,17.40
2022-09-02T00:04:23.597Z,17.37
2022-09-02T00:06:54.258Z,17.37
2022-09-02T00:09:25.641Z,17.38
2022-09-02T00:11:56.653Z,17.38
2022-09-02T00:14:35.978Z,17.39
2022-09-02T00:17:05.308Z,17.35
2022-09-02T00:19:34.230Z,17.34
2022-09-02T00:22:03.135Z,17.31
2022-09-02T00:24:32.186Z,17.16
2022-09-02T00:27:00.675Z,17.27
2022-09-02T00:29:29.335Z,17.24
2022-09-02T00:31:58.290Z,17.18
2022-09-02T00:34:26.690Z,17.18
2022-09-02T00:36:55.153Z,17.13
2022-09-02T00:39:23.403Z,17.10
2022-09-02T00:41:51.198Z,17.08
2022-09-02T00:44:20.361Z,17.02
2022-09-02T00:46:48.979Z,16.99
2022-09-02T00:49:27.031Z,16.92
2022-09-02T00:52:15.084Z,16.88
2022-09-02T00:54:54.755Z,16.82
2022-09-02T00:57:31.065Z,16.77
2022-09-02T01:00:10.920Z,16.75
2022-09-02T01:02:41.981Z,16.73
2022-09-02T01:05:15.332Z,16.67
2022-09-02T01:07:44.893Z,16.61
2022-09-02T01:10:28.164Z,16.58
2022-09-02T01:13:11.299Z,16.52
2022-09-02T01:16:17.650Z,16.46
2022-09-02T01:18:52.382Z,16.41
2022-09-02T01:21:23.069Z,16.37
2022-09-02T01:23:52.623Z,16.33
2022-09-02T01:26:21.243Z,16.25
2022-09-02T01:28:49.557Z,16.25
2022-09-02T01:31:19.421Z,16.22
2022-09-02T01:33:47.673Z,16.17
2022-09-02T01:36:16.212Z,16.13
2022-09-02T01:38:44.557Z,15.97
2022-09-02T01:41:13.534Z,16.02
2022-09-02T01:43:41.898Z,15.97
2022-09-02T01:46:10.276Z,15.95
2022-09-02T01:48:38.983Z,15.92
2022-09-02T01:51:07.712Z,15.88
2022-09-02T01:53:36.691Z,15.86
2022-09-02T01:56:07.064Z,15.82
2022-09-02T01:58:36.121Z,15.79
2022-09-02T02:01:04.668Z,15.74
2022-09-02T02:03:35.800Z,15.68
2022-09-02T02:06:14.724Z,15.62
2022-09-02T02:08:44.380Z,15.59
2022-09-02T02:11:19.943Z,15.57
2022-09-02T02:13:51.302Z,15.53
2022-09-02T02:16:22.889Z,15.50
2022-09-02T02:18:51.271Z,15.47
2022-09-02T02:21:20.032Z,15.44
2022-09-02T02:23:49.170Z,15.42
2022-09-02T02:26:17.404Z,15.39
2022-09-02T02:28:45.806Z,15.38
2022-09-02T02:31:14.051Z,15.34
2022-09-02T02:33:42.394Z,15.35
2022-09-02T02:36:11.327Z,15.30
2022-09-02T02:38:41.301Z,15.25
2022-09-02T02:41:10.216Z,15.23
2022-09-02T02:43:39.505Z,15.21
2022-09-02T02:46:08.700Z,15.18
2022-09-02T02:48:39.058Z,15.21
2022-09-02T02:51:08.559Z,15.15
2022-09-02T02:53:37.048Z,15.12
2022-09-02T02:56:06.358Z,15.07
2022-09-02T02:58:34.812Z,15.03
2022-09-02T03:01:04.080Z,15.01
2022-09-02T03:03:33.084Z,14.98
2022-09-02T03:06:01.775Z,14.94
2022-09-02T03:08:32.006Z,14.92
2022-09-02T03:11:01.734Z,14.87
2022-09-02T03:13:33.506Z,14.82
2022-09-02T03:16:06.327Z,14.79
2022-09-02T03:18:35.940Z,14.78
2022-09-02T03:21:08.872Z,14.74
2022-09-02T03:23:37.549Z,14.72
2022-09-02T03:26:12.735Z,14.69
2022-09-02T03:28:41.262Z,14.65
2022-09-02T03:31:20.972Z,14.63
2022-09-02T03:33:50.397Z,14.62
2022-09-02T03:36:32.693Z,14.62
2022-09-02T03:39:02.810Z,14.60
2022-09-02T03:41:31.234Z,14.60
2022-09-02T03:44:01.936Z,14.56
2022-09-02T03:46:31.661Z,14.56
2022-09-02T03:49:00.257Z,14.53
2022-09-02T03:51:28.831Z,14.52
2022-09-02T03:53:57.326Z,14.50
2022-09-02T03:56:27.392Z,14.48
2022-09-02T03:58:57.467Z,14.48
2022-09-02T04:01:29.727Z,14.47
2022-09-02T04:04:07.718Z,14.44
2022-09-02T04:06:38.777Z,14.43
2022-09-02T04:09:07.463Z,14.43
2022-09-02T04:11:37.691Z,14.43
2022-09-02T04:14:06.318Z,14.44
2022-09-02T04:16:35.165Z,14.43
2022-09-02T04:19:09.413Z,14.38
2022-09-02T04:21:40.356Z,14.37
2022-09-02T04:24:11.135Z,14.36
2022-09-02T04:26:44.810Z,14.34
2022-09-02T04:29:16.612Z,14.33
2022-09-02T04:31:45.647Z,14.30
2022-09-02T04:34:14.048Z,14.29
2022-09-02T04:36:43.457Z,14.25
2022-09-02T04:39:13.629Z,14.25
2022-09-02T04:41:42.511Z,14.22
2022-09-02T04:44:12.711Z,14.25
2022-09-02T04:46:44.029Z,14.21
2022-09-02T04:49:16.232Z,14.20
2022-09-02T04:51:46.006Z,14.19
2022-09-02T04:54:14.381Z,14.18
2022-09-02T04:56:44.973Z,14.22
2022-09-02T04:59:14.176Z,14.18
2022-09-02T05:01:50.318Z,14.16
2022-09-02T05:04:22.946Z,14.18
2022-09-02T05:06:53.717Z,14.18
2022-09-02T05:09:22.927Z,14.19
2022-09-02T05:11:58.419Z,14.18
2022-09-02T05:14:32.873Z,14.19
2022-09-02T05:17:07.654Z,14.16
2022-09-02T05:19:39.126Z,14.18
2022-09-02T05:22:07.805Z,14.19
2022-09-02T05:24:40.144Z,14.21
2022-09-02T05:27:15.373Z,14.20
2022-09-02T05:29:45.513Z,14.22
2022-09-02T05:32:15.235Z,14.23
2022-09-02T05:34:45.426Z,14.24
2022-09-02T05:37:13.285Z,14.25
2022-09-02T05:39:41.748Z,14.27
2022-09-02T05:42:11.032Z,14.28
2022-09-02T05:44:44.465Z,14.31
2022-09-02T05:47:14.847Z,14.31
2022-09-02T05:49:43.741Z,14.35
2022-09-02T05:52:14.903Z,14.37
2022-09-02T05:54:49.682Z,14.40
2022-09-02T05:57:21.817Z,14.42
2022-09-02T06:00:07.947Z,14.44
2022-09-02T06:02:43.765Z,14.46
2022-09-02T06:05:21.818Z,14.51
2022-09-02T06:07:57.746Z,14.54
2022-09-02T06:10:26.637Z,14.58
2022-09-02T06:12:55.347Z,14.63
2022-09-02T06:15:30.742Z,14.68
2022-09-02T06:18:00.337Z,14.70
2022-09-02T06:20:32.458Z,14.72
2022-09-02T06:23:02.324Z,14.81
2022-09-02T06:25:30.721Z,14.84
2022-09-02T06:28:02.101Z,14.88
2022-09-02T06:30:38.456Z,14.95
2022-09-02T06:33:07.428Z,15.02
2022-09-02T06:35:44.614Z,15.08
2022-09-02T06:38:14.821Z,15.15
2022-09-02T06:40:54.707Z,15.21
2022-09-02T06:43:42.354Z,15.29
2022-09-02T06:46:28.261Z,15.39
2022-09-02T06:48:58.843Z,15.46
2022-09-02T06:51:43.777Z,15.54
2022-09-02T06:54:17.177Z,15.65
2022-09-02T06:56:49.627Z,15.71
2022-09-02T06:59:21.346Z,15.77
2022-09-02T07:01:53.570Z,15.87
2022-09-02T07:04:42.749Z,15.95
2022-09-02T07:07:15.214Z,16.05
2022-09-02T07:09:55.519Z,16.12
2022-09-02T07:12:26.961Z,16.24
2022-09-02T07:15:00.616Z,16.36
2022-09-02T07:17:34.661Z,16.48
2022-09-02T07:20:06.978Z,16.57
2022-09-02T07:22:43.337Z,16.68
2022-09-02T07:25:17.411Z,16.76
2022-09-02T07:27:45.895Z,16.87
2022-09-02T07:30:14.709Z,17.00
2022-09-02T07:32:45.565Z,17.11
2022-09-02T07:35:13.804Z,17.22
2022-09-02T07:37:42.063Z,17.35
2022-09-02T07:40:12.069Z,17.45
2022-09-02T07:42:40.682Z,17.56
2022-09-02T07:45:11.485Z,17.70
2022-09-02T07:47:42.002Z,17.79
2022-09-02T07:50:21.536Z,17.89
2022-09-02T07:52:59.066Z,17.98
2022-09-02T07:55:31.626Z,18.10
2022-09-02T07:58:01.417Z,18.18
2022-09-02T08:00:31.057Z,18.30
2022-09-02T08:05:47.027Z,18.50
2022-09-02T08:08:20.108Z,18.66
2022-09-02T08:10:51.118Z,18.71
2022-09-02T08:13:19.662Z,18.81
2022-09-02T08:15:50.798Z,18.91
2022-09-02T08:18:21.100Z,19.00
2022-09-02T08:20:51.065Z,19.10
2022-09-02T08:23:35.485Z,19.22
2022-09-02T08:26:05.574Z,19.35
2022-09-02T08:28:34.513Z,19.47
2022-09-02T08:31:07.342Z,19.60
2022-09-02T08:33:36.368Z,19.72
2022-09-02T08:36:11.743Z,19.81
2022-09-02T08:38:40.097Z,19.91
2022-09-02T08:41:33.951Z,20.01
2022-09-02T08:44:03.133Z,20.15
2022-09-02T08:46:33.120Z,20.23
2022-09-02T08:49:16.820Z,20.37
2022-09-02T08:52:01.091Z,20.50
2022-09-02T08:55:14.522Z,20.67
2022-09-02T08:57:44.614Z,20.80
2022-09-02T09:00:14.203Z,20.91
2022-09-02T09:03:26.115Z,21.07
2022-09-02T09:06:07.359Z,21.15
2022-09-02T09:08:57.962Z,21.24
2022-09-02T09:12:19.216Z,21.44
2022-09-02T09:15:29.403Z,21.55
2022-09-02T09:18:03.122Z,21.70
2022-09-02T09:20:41.289Z,21.81
2022-09-02T09:23:34.555Z,21.90
2022-09-02T09:26:17.670Z,22.02
2022-09-02T09:28:49.088Z,22.11
2022-09-02T09:31:24.990Z,22.21
2022-09-02T09:34:12.810Z,22.37
2022-09-02T09:36:54.283Z,22.45
2022-09-02T09:39:29.648Z,22.50
2022-09-02T09:42:01.598Z,22.61
2022-09-02T09:44:47.001Z,22.64
2022-09-02T09:47:26.581Z,22.78
2022-09-02T09:50:16.770Z,22.85
2022-09-02T09:52:47.804Z,23.01
2022-09-02T09:55:24.798Z,23.07
2022-09-02T09:57:54.405Z,23.18
2022-09-02T10:00:33.562Z,23.30
2022-09-02T10:03:05.889Z,23.38
2022-09-02T10:05:40.191Z,23.54
2022-09-02T10:08:16.849Z,23.75
2022-09-02T10:10:59.585Z,23.85
2022-09-02T10:13:33.091Z,24.35
2022-09-02T10:16:29.971Z,25.18
2022-09-02T10:19:34.256Z,25.36
2022-09-02T10:22:59.561Z,25.28
2022-09-02T10:26:11.680Z,25.23
2022-09-02T10:29:20.585Z,25.23
2022-09-02T10:32:18.716Z,25.26
2022-09-02T10:35:29.752Z,25.34
2022-09-02T10:38:30.898Z,25.57
2022-09-02T10:41:18.326Z,25.87
2022-09-02T10:44:24.410Z,26.47
2022-09-02T10:47:25.025Z,27.66
2022-09-02T10:50:40.861Z,28.72
2022-09-02T10:53:59.733Z,29.70
2022-09-02T10:56:43.815Z,30.51
2022-09-02T10:59:30.377Z,31.28
2022-09-02T11:02:22.488Z,31.89
2022-09-02T11:05:03.850Z,32.47
2022-09-02T11:07:52.701Z,32.38
2022-09-02T11:10:27.832Z,32.72
2022-09-02T11:13:23.105Z,33.23
2022-09-02T11:16:06.195Z,33.23
2022-09-02T11:19:05.419Z,34.17
2022-09-02T11:21:56.084Z,34.68
2022-09-02T11:24:43.315Z,35.05
2022-09-02T11:28:00.785Z,34.92
2022-09-02T11:30:48.547Z,35.76
2022-09-02T11:33:47.149Z,35.76
2022-09-02T11:36:16.935Z,35.89
2022-09-02T11:39:05.029Z,35.98
2022-09-02T11:41:41.713Z,36.27
2022-09-02T11:45:11.375Z,36.87
2022-09-02T11:48:23.889Z,36.98
2022-09-02T11:51:10.768Z,37.58
2022-09-02T11:53:42.951Z,36.95
2022-09-02T11:56:17.073Z,38.20
2022-09-02T11:58:52.964Z,38.44
2022-09-02T12:01:43.686Z,37.36
2022-09-02T12:07:08.750Z,37.27
2022-09-02T12:09:55.148Z,37.81
2022-09-02T12:12:42.421Z,-149.27
2022-09-02T12:15:17.946Z,-149.27
2022-09-02T12:17:48.225Z,-149.27
2022-09-02T12:20:57.205Z,-149.27
2022-09-02T12:23:53.348Z,-149.27
2022-09-02T12:26:23.063Z,-149.27
2022-09-02T12:28:52.359Z,-149.27
2022-09-02T12:31:42.953Z,-149.27
2022-09-02T12:34:25.984Z,-149.27
2022-09-02T12:37:02.503Z,-149.27
2022-09-02T12:39:35.463Z,-149.27
2022-09-02T12:42:11.857Z,-149.27
2022-09-02T12:45:28.156Z,-149.27
2022-09-02T12:48:18.253Z,-149.27
2022-09-02T12:51:00.057Z,-149.27
2022-09-02T12:53:43.815Z,-149.27
2022-09-02T12:56:23.872Z,-149.27
2022-09-02T12:59:02.215Z,-149.27
2022-09-02T13:02:14.734Z,37.81
2022-09-02T13:05:42.982Z,37.79
2022-09-02T13:09:06.456Z,36.98
2022-09-02T13:12:11.838Z,36.22
2022-09-02T13:15:57.259Z,35.79
2022-09-02T13:19:03.257Z,35.34
2022-09-02T13:21:56.197Z,34.75
2022-09-02T13:24:57.960Z,35.10
2022-09-02T13:28:07.910Z,35.98
2022-09-02T13:31:26.766Z,37.57
2022-09-02T13:34:13.731Z,36.78
2022-09-02T13:36:47.004Z,37.57
2022-09-02T13:39:27.979Z,38.12
2022-09-02T13:41:57.260Z,39.10
2022-09-02T13:44:29.429Z,39.40
2022-09-02T13:47:16.264Z,39.89
2022-09-02T13:49:53.811Z,38.52
2022-09-02T13:53:17.717Z,37.85
2022-09-02T13:55:15.953Z,37.72
2022-09-02T13:58:00.457Z,37.71
2022-09-02T14:00:39.938Z,37.16
2022-09-02T14:03:21.124Z,36.48
2022-09-02T14:05:53.147Z,35.74
2022-09-02T14:08:24.671Z,35.31
2022-09-02T14:10:53.912Z,34.92
2022-09-02T14:13:23.168Z,34.81
2022-09-02T14:15:51.609Z,34.28
2022-09-02T14:18:22.763Z,34.11
2022-09-02T14:21:18.413Z,33.72
2022-09-02T14:23:55.540Z,33.91
2022-09-02T14:26:38.227Z,33.83
2022-09-02T14:29:07.951Z,33.72
2022-09-02T14:32:15.805Z,34.72
2022-09-02T14:34:47.397Z,34.98
2022-09-02T14:37:26.869Z,34.43
2022-09-02T14:40:12.190Z,34.50
2022-09-02T14:42:56.596Z,34.29
2022-09-02T14:45:33.181Z,33.80
2022-09-02T14:48:13.594Z,33.41
2022-09-02T14:50:43.146Z,33.36
2022-09-02T14:53:12.129Z,33.09
2022-09-02T14:55:52.322Z,32.26
2022-09-02T14:58:27.432Z,32.42
2022-09-02T15:00:59.963Z,32.62
2022-09-02T15:03:53.797Z,32.99
2022-09-02T15:06:22.126Z,32.48
2022-09-02T15:08:50.400Z,32.42
2022-09-02T15:11:21.100Z,32.08
2022-09-02T15:13:50.937Z,32.09
2022-09-02T15:16:20.120Z,31.73
2022-09-02T15:18:48.341Z,31.91
2022-09-02T15:21:17.324Z,31.56
2022-09-02T15:23:50.555Z,31.56
2022-09-02T15:26:28.204Z,31.43
2022-09-02T15:28:56.571Z,31.39
2022-09-02T15:31:25.565Z,31.35
2022-09-02T15:33:59.990Z,31.28
2022-09-02T15:36:52.976Z,31.53
2022-09-02T15:39:22.778Z,30.97
2022-09-02T15:41:51.943Z,31.55
2022-09-02T15:44:20.217Z,32.47
2022-09-02T15:46:48.230Z,33.33
2022-09-02T15:49:24.724Z,34.06
2022-09-02T15:51:55.157Z,34.49
2022-09-02T15:54:24.443Z,35.13
2022-09-02T15:56:56.998Z,35.37
2022-09-02T15:59:26.420Z,35.62
2022-09-02T16:01:57.185Z,36.04
2022-09-02T16:04:27.231Z,36.49
2022-09-02T16:06:55.108Z,36.76
2022-09-02T16:09:23.535Z,36.78
2022-09-02T16:11:56.166Z,37.22
2022-09-02T16:14:25.762Z,37.07
2022-09-02T16:16:57.727Z,37.36
2022-09-02T16:19:30.231Z,37.49
2022-09-02T16:21:59.223Z,37.10
2022-09-02T16:24:27.758Z,37.59
2022-09-02T16:26:55.971Z,37.20
2022-09-02T16:29:26.885Z,37.31
2022-09-02T16:32:14.291Z,37.58
2022-09-02T16:34:46.618Z,37.43
2022-09-02T16:37:18.855Z,37.33
2022-09-02T16:39:47.199Z,36.86
2022-09-02T16:42:15.439Z,36.41
2022-09-02T16:44:44.803Z,36.69
2022-09-02T16:47:13.791Z,36.21
2022-09-02T16:49:42.526Z,36.25
2022-09-02T16:52:10.776Z,36.42
2022-09-02T16:54:41.163Z,35.87
2022-09-02T16:57:09.861Z,35.95
2022-09-02T16:59:38.064Z,35.95
2022-09-02T17:02:06.793Z,35.83
2022-09-02T17:04:35.070Z,35.82
2022-09-02T17:07:03.275Z,35.18
2022-09-02T17:09:31.526Z,35.00
2022-09-02T17:11:59.800Z,35.13
2022-09-02T17:14:28.042Z,34.85
2022-09-02T17:16:56.344Z,34.71
2022-09-02T17:19:28.618Z,34.35
2022-09-02T17:22:00.461Z,33.66
2022-09-02T17:24:30.599Z,33.33
2022-09-02T17:27:01.089Z,32.84
2022-09-02T17:29:48.685Z,32.81
2022-09-02T17:32:19.334Z,32.27
2022-09-02T17:34:50.369Z,31.17
2022-09-02T17:37:19.797Z,31.54
2022-09-02T17:39:49.534Z,31.37
2022-09-02T17:42:18.348Z,30.76
2022-09-02T17:44:46.605Z,31.03
2022-09-02T17:47:23.143Z,30.87
2022-09-02T17:49:51.981Z,30.56
2022-09-02T17:52:25.047Z,30.41
2022-09-02T17:54:54.330Z,30.25
2022-09-02T17:57:48.101Z,29.89
2022-09-02T18:00:26.503Z,29.70
2022-09-02T18:03:20.277Z,29.49
2022-09-02T18:06:01.796Z,29.23
2022-09-02T18:09:01.045Z,28.94
2022-09-02T18:11:30.717Z,28.65
2022-09-02T18:14:48.452Z,28.42
2022-09-02T18:17:34.943Z,28.13
2022-09-02T18:20:43.962Z,27.23
2022-09-02T18:23:42.028Z,27.39
2022-09-02T18:26:30.240Z,27.28
2022-09-02T18:29:43.223Z,27.00
2022-09-02T18:33:13.370Z,26.52
2022-09-02T18:36:25.898Z,26.57
2022-09-02T18:39:19.846Z,26.38
2022-09-02T18:42:27.590Z,26.00
2022-09-02T18:45:35.498Z,25.98
2022-09-02T18:48:10.759Z,25.78
2022-09-02T18:51:12.846Z,25.64
2022-09-02T18:53:49.389Z,25.36
2022-09-02T18:56:21.030Z,25.25
2022-09-02T18:59:11.573Z,25.10
2022-09-02T19:01:55.559Z,24.94
2022-09-02T19:04:29.374Z,24.45
2022-09-02T19:07:18.344Z,24.59
2022-09-02T19:09:47.019Z,24.50
2022-09-02T19:12:15.385Z,24.39
2022-09-02T19:14:43.298Z,24.27
2022-09-02T19:17:12.527Z,23.94
2022-09-02T19:19:40.436Z,23.97
2022-09-02T19:22:11.342Z,23.77
2022-09-02T19:24:58.010Z,23.73
2022-09-02T19:27:35.610Z,23.42
2022-09-02T19:30:20.221Z,23.38
2022-09-02T19:32:58.912Z,23.24
2022-09-02T19:35:30.112Z,23.13
2022-09-02T19:37:58.171Z,23.04
2022-09-02T19:40:33.062Z,23.01
2022-09-02T19:43:05.170Z,22.82
2022-09-02T19:45:37.248Z,22.65
2022-09-02T19:48:11.045Z,22.43
2022-09-02T19:50:43.250Z,22.47
2022-09-02T19:53:22.152Z,22.15
2022-09-02T19:55:51.047Z,22.14
2022-09-02T19:58:19.115Z,22.13
2022-09-02T20:00:47.904Z,22.17
2022-09-02T20:03:16.568Z,22.17
2022-09-02T20:05:44.373Z,22.12
2022-09-02T20:08:12.442Z,21.97
2022-09-02T20:10:40.472Z,22.05
2022-09-02T20:13:13.596Z,21.95
2022-09-02T20:15:41.566Z,21.94
2022-09-02T20:18:14.283Z,21.92
2022-09-02T20:20:46.292Z,21.91
2022-09-02T20:23:18.068Z,21.89
2022-09-02T20:26:50.327Z,21.80
2022-09-02T20:29:49.880Z,21.84
2022-09-02T20:32:52.641Z,21.78
2022-09-02T20:36:00.203Z,21.65
2022-09-02T20:39:03.904Z,21.74
2022-09-02T20:42:06.232Z,21.69
2022-09-02T20:44:40.816Z,21.70
2022-09-02T20:47:26.526Z,21.77
2022-09-02T20:50:44.078Z,21.82
2022-09-02T20:54:00.268Z,21.83
2022-09-02T20:57:00.459Z,21.77
2022-09-02T21:00:02.130Z,21.82
2022-09-02T21:02:57.773Z,21.80
2022-09-02T21:05:42.477Z,21.79
2022-09-02T21:08:24.288Z,21.75
2022-09-02T21:10:59.203Z,21.76
2022-09-02T21:14:00.752Z,21.72
2022-09-02T21:16:39.891Z,21.70
2022-09-02T21:19:34.333Z,21.69
2022-09-02T21:22:28.935Z,21.68
2022-09-02T21:25:27.606Z,21.65
2022-09-02T21:28:11.938Z,21.64
2022-09-02T21:31:05.870Z,21.56
2022-09-02T21:33:42.688Z,21.61
2022-09-02T21:36:14.541Z,21.58
2022-09-02T21:38:45.618Z,21.51
2022-09-02T21:41:32.951Z,21.47
2022-09-02T21:44:57.483Z,21.52
2022-09-02T21:48:28.965Z,21.48
2022-09-02T21:51:01.656Z,21.39
2022-09-02T21:54:11.216Z,21.33
2022-09-02T21:57:19.104Z,21.39
2022-09-02T22:00:00.642Z,21.31
2022-09-02T22:03:00.743Z,21.29
2022-09-02T22:05:53.141Z,21.20
2022-09-02T22:08:44.020Z,21.18
2022-09-02T22:11:23.316Z,21.10
2022-09-02T22:13:51.477Z,21.09
2022-09-02T22:16:55.947Z,21.08
2022-09-02T22:19:29.954Z,21.03
2022-09-02T22:22:16.602Z,21.02
2022-09-02T22:24:47.603Z,20.98
2022-09-02T22:27:39.593Z,20.91
2022-09-02T22:30:15.392Z,20.90
2022-09-02T22:33:19.001Z,20.87
2022-09-02T22:36:07.890Z,20.81
2022-09-02T22:38:50.126Z,20.69
2022-09-02T22:41:34.272Z,20.63
2022-09-02T22:44:20.296Z,20.57
2022-09-02T22:47:18.555Z,20.50
2022-09-02T22:50:16.068Z,20.45
2022-09-02T22:52:54.830Z,20.41
2022-09-02T22:55:48.196Z,20.37
2022-09-02T22:59:32.665Z,20.23
2022-09-02T23:02:33.781Z,20.18
2022-09-02T23:05:43.020Z,20.09
2022-09-02T23:08:14.550Z,20.10
2022-09-02T23:11:14.736Z,19.97
2022-09-02T23:14:23.900Z,20.05
2022-09-02T23:17:12.909Z,19.91
2022-09-02T23:20:11.107Z,19.88
2022-09-02T23:22:57.871Z,19.82
2022-09-02T23:25:51.923Z,19.83
2022-09-02T23:28:58.217Z,19.78
2022-09-02T23:31:54.050Z,19.72
2022-09-02T23:34:57.951Z,19.66
2022-09-02T23:38:12.920Z,19.70
2022-09-02T23:41:08.838Z,19.65
2022-09-02T23:43:37.594Z,19.51
2022-09-02T23:46:36.385Z,19.56
2022-09-02T23:49:49.230Z,19.50
2022-09-02T23:52:52.975Z,19.48
2022-09-02T23:56:07.397Z,19.47
2022-09-02T23:59:24.934Z,19.38
